Terminal Aerodrome Forecast
Issued by NWS

Home | Current Version | Previous Version | Text Only | Print | Product List | Glossary Off
Versions: 1 2 3 4 5 6 7 8 9 10 11 12 13 14 15

000
FTUS43 KOAX 221734
TAFCDR
TAF
KCDR 221734Z 2218/2318 27003KT P6SM FEW020 OVC040
      TEMPO 2220/2224 3SM -SN BR BKN020
     FM230400 VRB03KT P6SM BKN015 OVC025
      TEMPO 2310/2314 3SM BR BKN007=

USA.gov is the U.S. government's official web portal to all federal, state and local government web resources and services.